logo
Search for airport 
image banner adimage banner adimage banner ad
image banner ad

YYMI - Yam Island

Located in Cairns, Australia

ICAO - YYMI, IATA - XMY

Data provided by Airmate  

General information

Coordinates: S9°53'57" E142°46'27"
Elevation is 15 feet MSL.
Magnetic variation is 5° East
View others Airports in Queensland

Operational data

Special qualification required
Current time UTC:
Current local time:
Weather at : - ( 0 km )
METAR: KXVG 220413Z AUTO 09003KT 10SM -DZ SCT060 SCT080 BKN100 17/14 A3003 RMK AO2
View NOTAMs / SUP AIP / TFR affecting this airport [VIEW]
Communications frequencies: [VIEW]

Runways:

RWY identifierQFULength (ft)Width (ft)SurfaceLDA (ft)
28289°26250UNK
10109°26250UNK

Airport contact information

Address: Cairns Australia

Satellite view of YYMI